Time;durP1;ratioP1;P1;durP2;ratioP2;P2;SDS_P1;SDS_P2;PMS_P1;PMS_P2;Temp;Humidity;BMP_temperature;BMP_pressure;BME280_temperature;BME280_humidity;BME280_pressure;Samples;Min_cycle;Max_cycle;Signal;HPM_P1;HPM_P2
2024/02/14 00:00:15;;;;;;;4.10;3.80;;;3.80;1.00;;;3.52;100.00;101342.41;6099118;23;20193;-65
2024/02/14 00:02:49;;;;;;;1.65;1.55;;;3.80;1.00;;;3.46;100.00;101348.31;6099126;23;20150;-66
2024/02/14 00:05:18;;;;;;;1.75;1.15;;;3.70;1.00;;;3.58;100.00;101344.50;6098700;23;20185;-66
2024/02/14 00:07:48;;;;;;;2.10;1.90;;;3.80;1.00;;;3.50;100.00;101337.19;6098262;23;20531;-68
2024/02/14 00:10:16;;;;;;;2.03;1.70;;;3.70;1.00;;;3.58;100.00;101330.28;6101437;23;20167;-68
2024/02/14 00:12:46;;;;;;;2.45;1.80;;;3.70;1.00;;;3.60;100.00;101342.50;6100565;23;20171;-67
2024/02/14 00:15:16;;;;;;;3.42;2.42;;;3.80;99.90;;;3.60;100.00;101336.31;6100695;23;20213;-67
2024/02/14 00:17:44;;;;;;;0.90;0.70;;;3.80;99.90;;;3.51;100.00;101346.06;6100255;23;20189;-66
2024/02/14 00:20:13;;;;;;;0.80;0.50;;;3.80;99.90;;;3.48;100.00;101349.03;6101350;23;20214;-66
2024/02/14 00:22:41;;;;;;;2.17;1.27;;;3.80;99.90;;;3.49;100.00;101337.31;6101745;23;20164;-65
2024/02/14 00:25:11;;;;;;;1.63;1.05;;;3.70;1.00;;;3.43;100.00;101348.63;6101731;23;20174;-67
2024/02/14 00:27:40;;;;;;;1.20;1.10;;;3.70;99.90;;;3.36;100.00;101342.16;6102714;23;20192;-66
2024/02/14 00:30:10;;;;;;;2.28;2.08;;;3.70;99.90;;;3.28;100.00;101345.56;6101706;23;20153;-67
2024/02/14 00:32:39;;;;;;;1.90;1.30;;;3.60;99.90;;;3.25;100.00;101345.84;6102437;23;20193;-67
2024/02/14 00:35:08;;;;;;;1.10;1.00;;;3.60;99.90;;;3.55;100.00;101343.94;6101653;23;20225;-66
2024/02/14 00:37:37;;;;;;;2.25;2.15;;;3.70;1.00;;;3.77;100.00;101346.25;6102130;23;20499;-67
2024/02/14 00:40:08;;;;;;;1.90;1.77;;;3.80;1.00;;;3.48;100.00;101349.03;6077174;23;20165;-66
2024/02/14 00:42:38;;;;;;;2.42;1.80;;;3.70;99.90;;;3.76;100.00;101353.44;6102467;23;20157;-66
2024/02/14 00:45:09;;;;;;;1.35;0.93;;;3.90;1.00;;;3.74;100.00;101347.38;6101605;23;20177;-66
2024/02/14 00:47:38;;;;;;;2.05;1.75;;;3.90;99.90;;;4.01;100.00;101340.38;6100471;23;20213;-66
2024/02/14 00:50:08;;;;;;;8.52;1.95;;;4.00;99.90;;;3.87;100.00;101341.72;6099719;23;20567;-67
2024/02/14 00:52:36;;;;;;;1.02;0.60;;;4.00;99.90;;;3.94;100.00;101343.63;6099997;23;20170;-67
2024/02/14 00:55:05;;;;;;;3.08;2.88;;;4.10;99.90;;;4.04;100.00;101350.78;6101139;23;20201;-67
2024/02/14 00:57:34;;;;;;;2.40;1.83;;;4.10;99.90;;;3.81;100.00;101344.97;6101360;23;20245;-67
2024/02/14 01:00:06;;;;;;;2.88;2.58;;;4.00;12.60;;;3.79;100.00;101349.63;6101446;23;20171;-66
2024/02/14 01:02:35;;;;;;;1.25;0.80;;;4.00;1.50;;;3.97;100.00;101344.34;6101341;23;20151;-65
2024/02/14 01:05:05;;;;;;;2.55;0.90;;;4.10;99.90;;;3.82;100.00;101344.84;6099372;23;20190;-65
2024/02/14 01:07:33;;;;;;;1.70;0.90;;;4.00;6.80;;;4.04;100.00;101353.44;6098289;23;20234;-67
2024/02/14 01:10:02;;;;;;;2.30;1.50;;;4.10;99.90;;;3.90;100.00;101349.44;6072617;23;20194;-64
2024/02/14 01:12:30;;;;;;;1.48;1.38;;;4.10;1.00;;;3.97;100.00;101347.03;6098115;23;20166;-67
2024/02/14 01:14:59;;;;;;;1.45;1.35;;;4.10;1.00;;;3.82;100.00;101347.50;6097140;23;20162;-68
2024/02/14 01:17:29;;;;;;;1.27;0.93;;;4.00;1.00;;;3.88;100.00;101338.00;6096436;23;20158;-67
2024/02/14 01:19:58;;;;;;;2.67;2.47;;;4.00;1.00;;;3.89;100.00;101337.03;6096396;23;20253;-67
2024/02/14 01:22:26;;;;;;;1.67;1.58;;;4.10;1.00;;;3.98;100.00;101332.59;6096238;23;20162;-67
2024/02/14 01:24:55;;;;;;;1.17;0.80;;;4.10;1.00;;;4.10;100.00;101332.28;6096431;23;20213;-66
2024/02/14 01:27:24;;;;;;;2.60;1.63;;;4.20;1.00;;;3.91;100.00;101333.22;6096174;23;20159;-66
2024/02/14 01:29:54;;;;;;;1.30;0.80;;;4.10;1.00;;;3.85;100.00;101336.50;6096937;23;20211;-66
2024/02/14 01:32:23;;;;;;;2.58;2.38;;;4.10;1.00;;;3.96;100.00;101329.25;6096847;23;20182;-66
2024/02/14 01:34:53;;;;;;;2.25;2.05;;;4.00;1.00;;;3.98;100.00;101322.75;6070849;23;20638;-67
2024/02/14 01:37:21;;;;;;;1.58;1.08;;;4.10;1.00;;;3.98;100.00;101314.72;6096247;23;20748;-66
2024/02/14 01:39:50;;;;;;;2.25;1.20;;;4.10;1.00;;;3.99;100.00;101318.25;6096377;23;20171;-68
2024/02/14 01:42:19;;;;;;;2.70;2.17;;;4.10;1.00;;;3.95;100.00;101317.69;6096192;23;20669;-67
2024/02/14 01:44:48;;;;;;;4.45;2.17;;;4.10;1.00;;;3.78;100.00;101322.00;6070739;23;20187;-67
2024/02/14 01:47:16;;;;;;;1.65;1.30;;;4.00;1.00;;;3.84;100.00;101315.22;6096008;23;20186;-65
2024/02/14 01:49:45;;;;;;;2.53;2.22;;;4.00;1.00;;;4.04;100.00;101315.97;6096379;23;20174;-67
2024/02/14 01:52:16;;;;;;;2.08;1.88;;;4.10;1.00;;;3.95;100.00;101315.03;6096496;23;20173;-67
2024/02/14 01:54:44;;;;;;;2.13;1.60;;;4.10;1.00;;;4.03;100.00;101316.94;6097833;23;20666;-68
2024/02/14 01:57:13;;;;;;;1.27;0.90;;;4.20;1.00;;;4.05;100.00;101307.78;6100167;23;20171;-68
2024/02/14 01:59:42;;;;;;;1.60;1.50;;;4.20;1.00;;;4.04;100.00;101315.97;6100685;23;20587;-68
2024/02/14 02:02:10;;;;;;;2.00;1.20;;;4.20;1.00;;;4.02;100.00;101315.28;6102431;23;20158;-67
2024/02/14 02:04:39;;;;;;;1.52;1.42;;;4.20;1.00;;;3.99;100.00;101308.38;6101422;23;20174;-68
2024/02/14 02:07:07;;;;;;;1.08;0.98;;;4.20;1.00;;;4.01;100.00;101302.88;6100907;23;20163;-69
2024/02/14 02:09:37;;;;;;;1.95;1.42;;;4.10;1.00;;;4.00;100.00;101293.16;6100621;23;20218;-67
2024/02/14 02:12:07;;;;;;;0.95;0.80;;;4.10;1.00;;;3.92;100.00;101292.06;6096804;23;20288;-67
2024/02/14 02:14:36;;;;;;;1.60;1.50;;;4.10;1.00;;;4.08;100.00;101286.03;6095206;23;20173;-67
2024/02/14 02:17:07;;;;;;;2.35;2.10;;;4.10;1.00;;;3.97;100.00;101288.91;6096172;23;20159;-68
2024/02/14 02:19:36;;;;;;;1.83;1.70;;;4.10;1.00;;;3.97;100.00;101282.75;6096350;23;20186;-67
2024/02/14 02:22:05;;;;;;;2.25;2.08;;;4.10;1.00;;;4.12;100.00;101291.94;6096055;23;20150;-67
2024/02/14 02:24:35;;;;;;;1.20;0.95;;;4.20;1.00;;;4.07;100.00;101281.66;6071065;23;20177;-66
2024/02/14 02:27:05;;;;;;;1.38;1.08;;;4.20;1.00;;;4.04;100.00;101287.34;6096217;23;20198;-66
2024/02/14 02:29:33;;;;;;;2.80;2.42;;;4.20;1.00;;;3.89;100.00;101283.47;6096347;23;20197;-67
2024/02/14 02:32:02;;;;;;;2.75;1.88;;;4.10;1.00;;;3.86;100.00;101286.47;6096256;23;20171;-67
2024/02/14 02:34:31;;;;;;;2.20;1.92;;;4.00;1.00;;;3.82;100.00;101280.59;6096268;23;20155;-66
2024/02/14 02:36:59;;;;;;;1.80;1.70;;;4.00;18.40;;;3.76;100.00;101291.88;6096172;23;20225;-67
2024/02/14 02:39:28;;;;;;;2.08;1.98;;;3.90;1.00;;;3.76;100.00;101283.84;6097834;23;20707;-67
2024/02/14 02:41:59;;;;;;;1.23;1.00;;;3.90;41.00;;;3.64;100.00;101279.66;6098505;23;20154;-68
2024/02/14 02:44:27;;;;;;;2.05;1.63;;;3.90;53.00;;;3.71;100.00;101280.75;6098195;23;20158;-67
2024/02/14 02:46:56;;;;;;;1.80;1.38;;;3.90;99.90;;;3.71;100.00;101286.13;6098198;23;20162;-67
2024/02/14 02:49:25;;;;;;;1.70;1.45;;;3.90;99.90;;;3.75;100.00;101275.94;6097279;23;20462;-68
2024/02/14 02:51:53;;;;;;;2.70;2.45;;;3.90;99.90;;;3.85;100.00;101280.28;6097509;23;20157;-67
2024/02/14 02:54:23;;;;;;;2.88;2.33;;;3.90;99.90;;;3.80;100.00;101276.34;6097915;23;20177;-66
2024/02/14 02:56:51;;;;;;;1.80;1.70;;;3.90;99.90;;;3.76;100.00;101270.47;6098183;23;20161;-66
2024/02/14 02:59:21;;;;;;;2.45;2.13;;;3.90;99.90;;;3.72;100.00;101263.72;6097612;23;20193;-67
2024/02/14 03:01:50;;;;;;;2.17;1.98;;;3.90;1.00;;;3.68;100.00;101273.00;6097553;23;20159;-66
2024/02/14 03:04:19;;;;;;;3.72;2.20;;;3.80;1.00;;;3.93;100.00;101266.97;6097788;23;20190;-67
2024/02/14 03:06:48;;;;;;;1.23;1.13;;;3.90;1.00;;;4.04;100.00;101267.75;6097274;23;20657;-67
2024/02/14 03:09:17;;;;;;;1.52;1.42;;;4.00;1.00;;;4.00;100.00;101258.34;6097326;23;20699;-66
2024/02/14 03:11:48;;;;;;;2.13;1.67;;;4.00;1.00;;;3.98;100.00;101255.81;6097672;23;20159;-67
2024/02/14 03:14:16;;;;;;;4.45;2.67;;;4.10;1.00;;;3.94;100.00;101257.09;6097873;23;20192;-67
2024/02/14 03:16:46;;;;;;;2.08;1.50;;;4.00;1.00;;;3.94;100.00;101252.59;6097609;23;20170;-66
2024/02/14 03:19:15;;;;;;;1.95;1.85;;;4.10;1.00;;;3.83;100.00;101255.47;6097617;23;20654;-67
2024/02/14 03:21:46;;;;;;;3.47;2.65;;;3.90;1.00;;;3.83;100.00;101255.47;6097440;23;20170;-66
2024/02/14 03:24:15;;;;;;;1.45;1.15;;;3.90;1.00;;;3.85;100.00;101253.50;6097748;23;20591;-66
2024/02/14 03:26:44;;;;;;;1.63;1.25;;;3.90;1.00;;;3.99;100.00;101248.63;6097394;23;20260;-65
2024/02/14 03:29:16;;;;;;;2.20;1.42;;;3.90;1.00;;;3.97;100.00;101245.25;6097708;23;20193;-67
2024/02/14 03:31:46;;;;;;;1.05;0.95;;;4.00;1.00;;;3.81;100.00;101246.75;6097427;23;20500;-66
2024/02/14 03:34:15;;;;;;;3.50;1.42;;;3.90;1.00;;;3.74;100.00;101244.81;6097626;23;20182;-66
2024/02/14 03:36:44;;;;;;;2.40;1.45;;;3.90;1.00;;;3.83;100.00;101246.59;6097335;23;20162;-66
2024/02/14 03:39:12;;;;;;;1.90;0.80;;;3.90;1.00;;;3.88;100.00;101246.97;6097445;23;20659;-67
2024/02/14 03:41:40;;;;;;;2.70;2.50;;;3.90;1.00;;;3.82;100.00;101240.41;6097162;23;20177;-67
2024/02/14 03:44:09;;;;;;;2.38;2.17;;;3.90;1.00;;;3.84;100.00;101241.09;6097506;23;20238;-67
2024/02/14 03:46:38;;;;;;;1.90;1.20;;;3.90;1.00;;;3.88;100.00;101237.13;6097338;23;20626;-66
2024/02/14 03:49:07;;;;;;;1.40;1.20;;;3.90;1.00;;;3.84;100.00;101235.75;6097089;23;20218;-66
2024/02/14 03:51:37;;;;;;;1.90;1.80;;;3.90;1.00;;;4.00;100.00;101228.88;6097149;23;20151;-67
2024/02/14 03:54:06;;;;;;;2.28;1.98;;;4.00;1.00;;;3.88;100.00;101223.72;6097345;23;20154;-67
2024/02/14 03:56:35;;;;;;;1.38;1.05;;;3.90;1.00;;;3.83;100.00;101222.50;6097117;23;20264;-66
2024/02/14 03:59:05;;;;;;;1.65;1.55;;;3.90;1.00;;;3.90;100.00;101213.72;6096780;23;20531;-67
2024/02/14 04:01:34;;;;;;;0.93;0.80;;;3.90;1.00;;;3.91;100.00;101203.88;6097177;23;20218;-66
2024/02/14 04:04:03;;;;;;;1.50;1.40;;;3.90;1.00;;;3.96;100.00;101211.44;6097274;23;20237;-66
2024/02/14 04:06:33;;;;;;;1.05;0.90;;;3.90;1.00;;;3.96;100.00;101222.16;6096995;23;20197;-66
2024/02/14 04:09:01;;;;;;;1.10;0.80;;;4.00;99.90;;;3.94;100.00;101223.13;6096989;23;20651;-66
2024/02/14 04:11:30;;;;;;;2.20;1.27;;;4.00;99.90;;;3.98;100.00;101210.28;6071780;23;20233;-67
2024/02/14 04:13:59;;;;;;;4.10;2.47;;;4.00;99.90;;;3.87;100.00;101219.38;6096518;23;20158;-67
2024/02/14 04:16:27;;;;;;;1.52;1.10;;;4.00;99.90;;;4.10;100.00;101230.50;6071416;23;20202;-68
2024/02/14 04:18:56;;;;;;;1.63;1.52;;;4.00;1.00;;;3.96;100.00;101243.56;6097123;23;20206;-66
2024/02/14 04:21:24;;;;;;;2.47;1.85;;;4.00;99.90;;;3.97;100.00;101243.41;6097428;23;20165;-67
2024/02/14 04:23:55;;;;;;;2.95;1.35;;;4.00;99.90;;;4.01;100.00;101244.81;6096898;23;20150;-66
2024/02/14 04:26:24;;;;;;;1.52;1.35;;;4.00;99.90;;;3.94;100.00;101236.53;6097077;23;20532;-66
2024/02/14 04:28:52;;;;;;;8.30;2.42;;;4.00;99.90;;;4.07;100.00;101230.78;6096529;23;20189;-66
2024/02/14 04:31:21;;;;;;;2.17;2.00;;;4.00;99.90;;;4.02;100.00;101237.63;6096439;23;20165;-66
2024/02/14 04:33:52;;;;;;;1.08;0.98;;;4.00;99.90;;;4.04;100.00;101238.28;6097123;23;20153;-66
2024/02/14 04:36:22;;;;;;;2.88;1.85;;;4.10;99.90;;;4.09;100.00;101231.50;6096973;23;20209;-64
2024/02/14 04:38:52;;;;;;;1.02;0.93;;;4.10;99.90;;;4.17;100.00;101230.72;6096876;23;20205;-67
2024/02/14 04:41:23;;;;;;;1.00;0.90;;;4.10;99.90;;;4.21;100.00;101224.09;6097238;23;20162;-67
2024/02/14 04:43:51;;;;;;;2.35;2.13;;;4.10;99.90;;;4.10;100.00;101230.50;6096803;23;20507;-67
2024/02/14 04:46:22;;;;;;;1.85;1.67;;;4.20;99.90;;;4.22;100.00;101228.41;6096504;23;20176;-67
2024/02/14 04:48:51;;;;;;;2.20;1.25;;;4.20;99.90;;;4.28;100.00;101227.81;6096167;23;20189;-67
2024/02/14 04:51:19;;;;;;;6.32;2.25;;;4.20;99.90;;;4.23;100.00;101222.06;6096714;23;20155;-67
2024/02/14 04:53:48;;;;;;;1.90;1.45;;;4.20;99.90;;;4.30;100.00;101224.00;6096685;23;20352;-67
2024/02/14 04:56:17;;;;;;;1.88;1.55;;;4.20;99.90;;;4.28;100.00;101222.47;6096641;23;20155;-67
2024/02/14 04:58:46;;;;;;;1.73;1.42;;;4.20;99.90;;;4.22;100.00;101218.56;6096548;23;20251;-65
2024/02/14 05:01:15;;;;;;;2.42;2.22;;;4.20;96.00;;;4.14;100.00;101210.44;6096327;23;20659;-67
2024/02/14 05:03:44;;;;;;;2.20;1.77;;;4.20;99.90;;;4.17;100.00;101206.59;6097122;23;20214;-66
2024/02/14 05:06:12;;;;;;;2.60;1.20;;;4.20;99.90;;;4.26;100.00;101198.50;6096940;23;20189;-65
2024/02/14 05:08:41;;;;;;;2.03;1.80;;;4.20;99.90;;;4.23;100.00;101198.81;6097793;23;20532;-67
2024/02/14 05:11:10;;;;;;;3.03;1.15;;;4.20;91.50;;;4.19;100.00;101193.91;6097616;23;20177;-66
2024/02/14 05:13:41;;;;;;;2.67;2.38;;;4.20;99.90;;;4.23;100.00;101193.44;6097204;23;20214;-66
2024/02/14 05:16:11;;;;;;;2.65;1.85;;;4.30;99.90;;;4.21;100.00;101191.94;6097409;23;20537;-67
2024/02/14 05:18:40;;;;;;;2.78;2.53;;;4.20;1.00;;;4.24;100.00;101194.28;6096908;23;20190;-66
2024/02/14 05:21:09;;;;;;;0.95;0.80;;;4.20;99.90;;;4.28;100.00;101195.66;6097520;23;20591;-68
2024/02/14 05:23:37;;;;;;;4.93;3.47;;;4.30;99.90;;;4.33;100.00;101188.00;6097038;23;20556;-66
2024/02/14 05:26:07;;;;;;;3.35;1.85;;;4.30;99.90;;;4.44;100.00;101190.47;6096557;23;20166;-67
2024/02/14 05:28:36;;;;;;;2.95;1.80;;;4.40;99.90;;;4.30;100.00;101181.13;6096366;23;20209;-65
2024/02/14 05:31:04;;;;;;;2.50;2.20;;;4.30;52.40;;;4.28;100.00;101179.59;6096453;23;20163;-66
2024/02/14 05:33:34;;;;;;;3.45;2.72;;;4.30;99.90;;;4.31;100.00;101168.56;6097028;23;20596;-67
2024/02/14 05:36:05;;;;;;;6.07;2.10;;;4.30;99.90;;;4.50;100.00;101168.41;6097070;23;20163;-66
2024/02/14 05:38:34;;;;;;;2.40;2.03;;;4.40;99.90;;;4.49;100.00;101165.88;6096573;23;20196;-66
2024/02/14 05:41:03;;;;;;;2.22;2.00;;;4.40;99.90;;;4.49;100.00;101160.50;6096528;23;20679;-68
2024/02/14 05:43:31;;;;;;;1.70;1.00;;;4.50;99.90;;;4.34;100.00;101162.91;6096809;23;20186;-67
2024/02/14 05:46:00;;;;;;;8.15;2.08;;;4.40;6.60;;;4.36;100.00;101155.53;6096188;23;20252;-65
2024/02/14 05:48:28;;;;;;;2.25;1.40;;;4.30;33.30;;;4.38;100.00;101153.56;6096293;23;20844;-66
2024/02/14 05:50:58;;;;;;;1.83;1.67;;;4.40;79.50;;;4.48;100.00;101151.63;6096434;23;20175;-65
2024/02/14 05:53:27;;;;;;;1.95;1.30;;;4.40;58.30;;;4.53;100.00;101152.00;6096382;23;20154;-66
2024/02/14 05:55:55;;;;;;;6.80;2.13;;;4.50;1.00;;;4.49;100.00;101149.78;6071126;23;20177;-65
2024/02/14 05:58:26;;;;;;;4.38;2.40;;;4.50;1.00;;;4.39;100.00;101149.88;6096788;23;20517;-67
2024/02/14 06:00:55;;;;;;;1.92;1.70;;;4.40;1.00;;;4.51;100.00;101153.13;6096422;23;20539;-67
2024/02/14 06:03:24;;;;;;;2.22;2.03;;;4.50;18.20;;;4.42;100.00;101152.25;6070972;23;20201;-67
2024/02/14 06:05:52;;;;;;;2.00;1.55;;;4.40;16.10;;;4.48;100.00;101154.31;6096173;23;20155;-67
2024/02/14 06:08:23;;;;;;;1.98;1.23;;;4.40;55.60;;;4.52;100.00;101150.31;6096440;23;20208;-66
2024/02/14 06:10:52;;;;;;;2.53;1.65;;;4.40;17.30;;;4.61;100.00;101153.88;6096626;23;20210;-68
2024/02/14 06:13:20;;;;;;;2.28;2.08;;;4.60;26.30;;;4.49;100.00;101149.78;6097934;23;20174;-68
2024/02/14 06:15:49;;;;;;;2.33;1.52;;;4.50;34.00;;;4.61;100.00;101144.00;6098993;23;20260;-67
2024/02/14 06:18:17;;;;;;;2.40;2.20;;;4.60;1.00;;;4.61;100.00;101149.38;6098411;23;20182;-67
2024/02/14 06:20:46;;;;;;;3.97;3.58;;;4.50;1.00;;;4.67;100.00;101148.75;6099057;23;20190;-67
2024/02/14 06:23:15;;;;;;;2.08;1.95;;;4.60;4.90;;;4.54;100.00;101148.31;6098653;23;20151;-66
2024/02/14 06:25:45;;;;;;;1.10;0.70;;;4.50;1.00;;;4.59;100.00;101151.38;6098640;23;20170;-66
2024/02/14 06:28:13;;;;;;;5.82;2.40;;;4.60;1.00;;;4.61;100.00;101149.38;6098216;23;20194;-67
2024/02/14 06:30:42;;;;;;;0.95;0.80;;;4.60;1.00;;;4.68;100.00;101161.16;6098686;23;20203;-67
2024/02/14 06:33:10;;;;;;;2.90;2.28;;;4.60;1.00;;;4.63;100.00;101163.47;6098321;23;20159;-67
2024/02/14 06:35:39;;;;;;;2.13;1.92;;;4.60;1.00;;;4.68;100.00;101152.25;6098774;23;20162;-67
2024/02/14 06:38:08;;;;;;;3.88;3.28;;;4.60;28.50;;;4.77;100.00;101159.34;6098521;23;20282;-67
2024/02/14 06:40:37;;;;;;;2.53;1.42;;;4.70;31.00;;;4.75;100.00;101150.63;6098004;23;20161;-67
2024/02/14 06:43:07;;;;;;;3.22;1.83;;;4.70;1.00;;;4.78;100.00;101153.00;6099198;23;20178;-67
2024/02/14 06:45:36;;;;;;;4.55;2.20;;;4.70;1.00;;;4.86;99.45;101149.50;6098784;23;20177;-67
2024/02/14 06:48:05;;;;;;;1.38;1.20;;;4.80;1.00;;;4.87;99.71;101144.00;6098554;23;20199;-66
2024/02/14 06:50:34;;;;;;;2.10;1.83;;;4.80;1.00;;;4.90;99.29;101137.47;6097599;23;20174;-67
2024/02/14 06:53:03;;;;;;;1.83;1.35;;;4.80;1.00;;;4.92;99.58;101136.31;6098294;23;20159;-66
2024/02/14 06:55:31;;;;;;;1.30;1.15;;;4.80;1.00;;;4.93;99.63;101131.81;6098261;23;20202;-69
2024/02/14 06:58:01;;;;;;;1.88;1.67;;;4.80;1.00;;;5.05;98.78;101125.13;6098094;23;20206;-66
2024/02/14 07:00:30;;;;;;;5.07;3.08;;;4.90;1.00;;;5.12;98.04;101131.56;6097978;23;20170;-68
2024/02/14 07:02:59;;;;;;;1.98;1.45;;;5.00;1.00;;;5.10;98.25;101125.50;6097448;23;20177;-67
2024/02/14 07:05:29;;;;;;;2.05;1.95;;;5.00;1.00;;;5.22;98.18;101129.59;6097820;23;20156;-65
2024/02/14 07:07:58;;;;;;;1.50;1.40;;;5.10;1.00;;;5.18;98.18;101125.56;6097706;23;20544;-66
2024/02/14 07:10:26;;;;;;;1.75;1.65;;;5.10;14.60;;;5.32;97.38;101116.88;6097915;23;20207;-66
2024/02/14 07:12:55;;;;;;;2.28;1.15;;;5.20;1.00;;;5.52;99.59;101118.25;6097674;23;20215;-68
2024/02/14 07:15:25;;;;;;;2.95;2.30;;;5.40;42.50;;;5.53;97.74;101119.09;6098009;23;20214;-64
2024/02/14 07:17:57;;;;;;;1.33;1.23;;;5.40;29.40;;;5.45;95.64;101121.78;6097865;23;20503;-67
2024/02/14 07:20:27;;;;;;;2.30;1.42;;;5.40;1.00;;;5.44;97.04;101118.25;6097864;23;20156;-66
2024/02/14 07:22:56;;;;;;;1.80;1.70;;;5.40;1.00;;;5.52;95.89;101134.38;6097898;23;20180;-68
2024/02/14 07:25:25;;;;;;;1.85;1.27;;;5.40;1.00;;;5.57;95.00;101131.19;6096870;23;20214;-66
2024/02/14 07:27:54;;;;;;;1.88;1.63;;;5.50;1.00;;;5.60;95.46;101131.72;6097234;23;20194;-66
2024/02/14 07:30:23;;;;;;;2.25;1.77;;;5.50;1.00;;;5.88;94.36;101137.69;6097143;23;20676;-64
2024/02/14 07:32:51;;;;;;;3.88;2.42;;;5.70;1.00;;;5.80;93.21;101137.63;6097294;23;20222;-66
2024/02/14 07:35:22;;;;;;;2.20;1.52;;;5.70;49.60;;;5.95;92.24;101154.81;6097579;23;20164;-65
2024/02/14 07:37:50;;;;;;;1.20;1.10;;;5.80;99.90;;;5.74;94.27;101150.88;6096947;23;20188;-64
2024/02/14 07:40:19;;;;;;;2.85;1.92;;;5.70;99.90;;;5.96;92.35;101155.63;6071469;23;20230;-65
2024/02/14 07:42:47;;;;;;;1.23;1.13;;;5.80;99.90;;;5.99;92.80;101171.44;6097639;23;20191;-65
2024/02/14 07:45:16;;;;;;;2.50;1.20;;;5.90;99.90;;;5.88;93.36;101161.84;6097722;23;20647;-66
2024/02/14 07:47:45;;;;;;;1.60;1.50;;;5.80;99.90;;;5.85;93.32;101164.84;6097435;23;20609;-65
2024/02/14 07:50:16;;;;;;;1.33;0.88;;;5.80;99.90;;;5.79;93.92;101164.66;6096985;23;20181;-66
2024/02/14 07:52:47;;;;;;;2.08;1.25;;;5.70;99.90;;;5.92;93.99;101156.97;6097152;23;20365;-65
2024/02/14 07:55:16;;;;;;;2.05;1.52;;;5.80;99.90;;;5.80;93.89;101156.44;6097172;23;20605;-65
2024/02/14 07:57:45;;;;;;;1.73;1.63;;;5.70;99.90;;;5.91;94.87;101152.59;6097924;23;20405;-64
2024/02/14 08:00:22;;;;;;;2.00;1.83;;;5.80;99.90;;;6.06;93.79;101154.47;6098821;23;20195;-68
2024/02/14 08:02:50;;;;;;;3.65;1.48;;;5.90;99.90;;;5.92;93.87;101146.22;6098728;23;20472;-66
2024/02/14 08:05:19;;;;;;;1.55;1.45;;;5.80;99.90;;;6.00;93.24;101146.25;6099305;23;20163;-66
2024/02/14 08:07:49;;;;;;;4.38;2.05;;;5.90;99.90;;;6.11;93.81;101146.75;6098759;23;20250;-65
2024/02/14 08:10:17;;;;;;;1.75;0.90;;;6.00;99.90;;;6.09;93.41;101137.19;6098587;23;20194;-67
2024/02/14 08:12:47;;;;;;;1.10;0.88;;;6.00;99.90;;;6.10;93.26;101131.63;6099174;23;20609;-66
2024/02/14 08:15:16;;;;;;;2.75;2.00;;;6.00;99.90;;;6.31;93.39;101130.28;6098874;23;20187;-65
2024/02/14 08:17:45;;;;;;;5.10;1.83;;;6.10;99.90;;;6.31;93.73;101122.22;6098698;23;20184;-65
2024/02/14 08:20:15;;;;;;;11.55;1.60;;;6.10;99.90;;;6.35;94.91;101123.56;6099152;23;20198;-67
2024/02/14 08:23:08;;;;;;;1.40;1.30;;;6.20;99.90;;;6.11;95.96;101124.41;6097668;23;20513;-68
2024/02/14 08:25:36;;;;;;;2.72;1.60;;;6.00;99.90;;;6.40;97.03;101124.75;6096002;23;20192;-65
2024/02/14 08:28:07;;;;;;;2.25;2.05;;;6.20;99.90;;;6.48;95.77;101116.69;6097075;23;20572;-65
2024/02/14 08:30:37;;;;;;;1.75;1.55;;;6.30;99.90;;;6.61;95.03;101120.69;6096064;23;20152;-66
2024/02/14 08:33:06;;;;;;;3.85;1.98;;;6.40;99.90;;;6.63;95.32;101116.00;6096756;23;20213;-66
2024/02/14 08:35:34;;;;;;;2.60;1.27;;;6.40;99.90;;;6.68;95.77;101106.38;6095720;23;20163;-66
2024/02/14 08:38:12;;;;;;;4.00;2.05;;;6.40;99.90;;;6.87;94.54;101121.31;6096404;23;20183;-68
2024/02/14 08:40:40;;;;;;;1.45;1.35;;;6.60;99.90;;;6.72;95.38;101120.34;6097045;23;20155;-67
2024/02/14 08:43:09;;;;;;;1.75;1.30;;;6.50;99.90;;;6.92;94.69;101119.75;6097641;23;20160;-65
2024/02/14 08:45:38;;;;;;;1.15;0.90;;;6.70;99.90;;;6.90;95.90;101115.56;6097184;23;20156;-64
2024/02/14 08:48:08;;;;;;;2.30;1.23;;;6.70;99.90;;;6.91;93.91;101112.72;6096457;23;20697;-65
2024/02/14 08:50:37;;;;;;;1.85;1.75;;;6.70;99.90;;;6.99;94.14;101111.84;6097913;23;20640;-65
2024/02/14 08:53:06;;;;;;;1.85;0.80;;;6.80;99.90;;;6.89;94.92;101113.91;6098377;23;20270;-68
2024/02/14 08:55:38;;;;;;;2.08;1.48;;;6.70;99.90;;;7.10;94.79;101116.84;6098915;23;20176;-67
2024/02/14 08:58:09;;;;;;;2.40;1.20;;;6.80;99.90;;;7.03;95.03;101110.47;6099432;23;20183;-68
2024/02/14 09:00:38;;;;;;;1.25;1.15;;;6.90;99.90;;;7.16;95.06;101113.47;6099427;23;20171;-66
2024/02/14 09:03:07;;;;;;;7.82;1.80;;;6.90;99.90;;;7.24;95.39;101113.44;6098206;23;20214;-65
2024/02/14 09:05:37;;;;;;;4.30;2.85;;;6.90;99.90;;;7.31;95.81;101109.00;6099004;23;20222;-65
2024/02/14 09:08:06;;;;;;;0.90;0.70;;;7.00;99.90;;;7.42;95.14;101113.16;6098171;23;20205;-67
2024/02/14 09:10:36;;;;;;;1.80;1.70;;;7.10;99.90;;;7.29;95.10;101115.59;6098594;23;20167;-65
2024/02/14 09:13:07;;;;;;;3.67;1.25;;;7.10;99.90;;;7.20;97.24;101114.81;6097988;23;20158;-67
2024/02/14 09:15:36;;;;;;;1.65;1.25;;;7.10;99.90;;;7.43;95.89;101115.69;6097737;23;20231;-66
2024/02/14 09:18:04;;;;;;;2.47;1.15;;;7.20;99.90;;;7.31;95.34;101113.56;6098379;23;20200;-66
2024/02/14 09:20:33;;;;;;;1.35;1.15;;;7.20;99.90;;;7.14;97.04;101120.03;6098062;23;20168;-66
2024/02/14 09:23:02;;;;;;;1.42;0.90;;;7.00;99.90;;;7.14;97.28;101118.19;6072418;23;20195;-65
2024/02/14 09:25:30;;;;;;;1.00;0.90;;;7.00;99.90;;;7.03;98.56;101118.56;6098390;23;20167;-66
2024/02/14 09:28:00;;;;;;;17.88;1.60;;;7.00;99.90;;;6.93;99.70;101115.22;6101590;23;20718;-67
2024/02/14 09:30:30;;;;;;;2.15;1.65;;;6.80;99.90;;;6.94;100.00;101116.91;6100669;23;20609;-66
2024/02/14 09:33:06;;;;;;;1.33;1.20;;;6.80;99.90;;;6.81;100.00;101122.00;6101308;23;20231;-67
2024/02/14 09:35:37;;;;;;;2.72;1.42;;;6.70;99.90;;;6.79;100.00;101119.47;6072520;23;20175;-65
2024/02/14 09:38:06;;;;;;;4.80;1.20;;;6.70;99.90;;;6.79;100.00;101113.25;6096494;23;20262;-66
2024/02/14 09:40:35;;;;;;;1.45;1.23;;;6.70;99.90;;;6.79;100.00;101110.56;6096948;23;20151;-67
2024/02/14 09:43:13;;;;;;;1.13;0.85;;;6.70;99.90;;;6.93;100.00;101121.44;6097181;23;20199;-67
2024/02/14 09:45:45;;;;;;;1.17;1.05;;;6.70;99.90;;;6.97;100.00;101108.50;6097441;23;20190;-66
2024/02/14 09:48:17;;;;;;;2.28;1.23;;;6.80;99.90;;;6.85;100.00;101121.47;6096694;23;20243;-64
2024/02/14 09:50:49;;;;;;;1.00;0.82;;;6.70;99.90;;;6.89;100.00;101113.91;6100368;23;20171;-66
2024/02/14 09:53:19;;;;;;;1.23;0.93;;;6.70;99.90;;;6.80;100.00;101117.63;6102138;23;20211;-66
2024/02/14 09:55:47;;;;;;;3.30;1.40;;;6.70;1.00;;;6.93;100.00;101112.53;6102025;23;20152;-66
2024/02/14 09:58:21;;;;;;;1.80;1.20;;;6.80;99.90;;;6.87;100.00;101110.56;6101144;23;20263;-68
2024/02/14 10:00:50;;;;;;;1.10;0.68;;;6.70;1.00;;;7.02;100.00;101118.75;6101768;23;20156;-67
2024/02/14 10:03:19;;;;;;;1.88;1.05;;;6.80;1.00;;;7.10;100.00;101111.47;6100205;23;20210;-67
2024/02/14 10:05:48;;;;;;;1.30;1.13;;;6.90;1.00;;;7.04;100.00;101112.16;6099167;23;20172;-67
2024/02/14 10:08:20;;;;;;;7.20;1.08;;;6.90;1.00;;;6.92;100.00;101113.56;6098777;23;20270;-66
2024/02/14 10:10:49;;;;;;;1.65;1.05;;;6.80;99.90;;;7.11;100.00;101107.78;6098654;23;20207;-66
2024/02/14 10:13:23;;;;;;;1.58;1.45;;;6.90;99.90;;;7.32;100.00;101108.00;6098586;23;20152;-66
2024/02/14 10:15:51;;;;;;;0.90;0.80;;;7.10;99.90;;;7.38;100.00;101110.00;6097601;23;20567;-67
2024/02/14 10:18:20;;;;;;;2.03;1.20;;;7.10;1.00;;;7.48;100.00;101106.25;6098945;23;20213;-67
2024/02/14 10:20:55;;;;;;;1.00;0.80;;;7.20;1.00;;;7.68;100.00;101110.16;6098740;23;20152;-68
2024/02/14 10:23:24;;;;;;;2.67;1.48;;;7.40;99.90;;;7.75;100.00;101114.66;6098545;23;20152;-67
2024/02/14 10:25:55;;;;;;;0.90;0.80;;;7.40;99.90;;;7.71;100.00;101110.63;6098114;23;20473;-67
2024/02/14 10:28:25;;;;;;;2.10;1.83;;;7.40;99.90;;;7.67;100.00;101105.78;6097437;23;20211;-67
2024/02/14 10:31:09;;;;;;;1.45;1.13;;;7.40;99.90;;;7.68;100.00;101104.78;6097596;23;20156;-67